sensor_id;sensor_type;location;lat;lon;timestamp;pressure;altitude;pressure_sealevel;temperature;humidity
64602;BME280;68371;42.630;23.192;2023-04-06T00:00:10;92043.31;;;-1.11;81.65
64602;BME280;68371;42.630;23.192;2023-04-06T00:02:37;92039.66;;;-1.05;80.77
64602;BME280;68371;42.630;23.192;2023-04-06T00:05:05;92035.84;;;-1.12;82.09
64602;BME280;68371;42.630;23.192;2023-04-06T00:07:31;92030.16;;;-1.09;80.94
64602;BME280;68371;42.630;23.192;2023-04-06T00:09:59;92031.00;;;-1.19;81.81
64602;BME280;68371;42.630;23.192;2023-04-06T00:12:28;92011.25;;;-1.29;82.14
64602;BME280;68371;42.630;23.192;2023-04-06T00:14:55;92017.06;;;-1.18;82.57
64602;BME280;68371;42.630;23.192;2023-04-06T00:17:22;92019.34;;;-1.11;81.31
64602;BME280;68371;42.630;23.192;2023-04-06T00:19:48;92009.63;;;-1.19;80.87
64602;BME280;68371;42.630;23.192;2023-04-06T00:22:15;91991.88;;;-1.26;81.08
64602;BME280;68371;42.630;23.192;2023-04-06T00:24:42;92005.50;;;-1.21;80.67
64602;BME280;68371;42.630;23.192;2023-04-06T00:27:09;92008.91;;;-1.25;81.89
64602;BME280;68371;42.630;23.192;2023-04-06T00:29:37;91996.38;;;-1.37;82.84
64602;BME280;68371;42.630;23.192;2023-04-06T00:32:04;91990.66;;;-1.34;82.91
64602;BME280;68371;42.630;23.192;2023-04-06T00:34:31;91980.84;;;-1.32;82.29
64602;BME280;68371;42.630;23.192;2023-04-06T00:36:58;91985.94;;;-1.22;82.82
64602;BME280;68371;42.630;23.192;2023-04-06T00:39:25;91983.94;;;-1.30;82.81
64602;BME280;68371;42.630;23.192;2023-04-06T00:41:52;91985.63;;;-1.20;81.92
64602;BME280;68371;42.630;23.192;2023-04-06T00:44:20;91982.19;;;-1.10;82.08
64602;BME280;68371;42.630;23.192;2023-04-06T00:46:49;91977.94;;;-0.96;81.89
64602;BME280;68371;42.630;23.192;2023-04-06T00:49:16;91983.19;;;-1.06;80.49
64602;BME280;68371;42.630;23.192;2023-04-06T00:51:43;91987.59;;;-1.07;80.65
64602;BME280;68371;42.630;23.192;2023-04-06T00:54:10;91981.94;;;-1.09;80.59
64602;BME280;68371;42.630;23.192;2023-04-06T00:56:37;91986.63;;;-1.16;80.55
64602;BME280;68371;42.630;23.192;2023-04-06T00:59:04;91975.56;;;-1.16;80.29
64602;BME280;68371;42.630;23.192;2023-04-06T01:01:31;91985.00;;;-1.07;80.04
64602;BME280;68371;42.630;23.192;2023-04-06T01:04:00;91984.19;;;-1.02;80.19
64602;BME280;68371;42.630;23.192;2023-04-06T01:06:28;91973.81;;;-1.21;80.45
64602;BME280;68371;42.630;23.192;2023-04-06T01:08:55;91982.03;;;-1.19;81.37
64602;BME280;68371;42.630;23.192;2023-04-06T01:11:22;91981.69;;;-1.12;82.02
64602;BME280;68371;42.630;23.192;2023-04-06T01:13:49;91974.44;;;-1.05;81.60
64602;BME280;68371;42.630;23.192;2023-04-06T01:16:15;91961.41;;;-1.19;81.08
64602;BME280;68371;42.630;23.192;2023-04-06T01:18:42;91969.53;;;-1.07;81.35
64602;BME280;68371;42.630;23.192;2023-04-06T01:21:10;91968.72;;;-1.02;80.72
64602;BME280;68371;42.630;23.192;2023-04-06T01:23:43;91972.06;;;-1.02;80.45
64602;BME280;68371;42.630;23.192;2023-04-06T01:26:10;91966.13;;;-1.02;82.05
64602;BME280;68371;42.630;23.192;2023-04-06T01:28:37;91964.81;;;-0.99;82.89
64602;BME280;68371;42.630;23.192;2023-04-06T01:31:05;91965.00;;;-0.91;80.96
64602;BME280;68371;42.630;23.192;2023-04-06T01:33:33;91963.50;;;-0.97;79.63
64602;BME280;68371;42.630;23.192;2023-04-06T01:35:59;91960.47;;;-1.04;80.35
64602;BME280;68371;42.630;23.192;2023-04-06T01:38:26;91966.09;;;-0.97;80.52
64602;BME280;68371;42.630;23.192;2023-04-06T01:40:54;91968.56;;;-0.87;81.05
64602;BME280;68371;42.630;23.192;2023-04-06T01:43:21;91963.50;;;-0.97;80.73
64602;BME280;68371;42.630;23.192;2023-04-06T01:45:48;91967.38;;;-0.99;80.35
64602;BME280;68371;42.630;23.192;2023-04-06T01:48:16;91960.94;;;-0.97;80.58
64602;BME280;68371;42.630;23.192;2023-04-06T01:50:42;91914.44;;;-1.16;81.30
64602;BME280;68371;42.630;23.192;2023-04-06T01:53:09;91963.34;;;-0.82;80.29
64602;BME280;68371;42.630;23.192;2023-04-06T01:55:36;91955.72;;;-0.92;81.44
64602;BME280;68371;42.630;23.192;2023-04-06T01:58:05;91950.06;;;-0.94;81.15
64602;BME280;68371;42.630;23.192;2023-04-06T02:00:33;91952.22;;;-1.01;80.38
64602;BME280;68371;42.630;23.192;2023-04-06T02:02:59;91949.06;;;-0.98;81.30
64602;BME280;68371;42.630;23.192;2023-04-06T02:05:27;91945.50;;;-1.02;80.47
64602;BME280;68371;42.630;23.192;2023-04-06T02:07:54;91947.94;;;-1.11;80.59
64602;BME280;68371;42.630;23.192;2023-04-06T02:10:21;91946.88;;;-1.10;80.90
64602;BME280;68371;42.630;23.192;2023-04-06T02:12:49;91948.91;;;-1.07;81.00
64602;BME280;68371;42.630;23.192;2023-04-06T02:15:17;91946.38;;;-1.12;81.61
64602;BME280;68371;42.630;23.192;2023-04-06T02:17:44;91938.59;;;-1.07;80.86
64602;BME280;68371;42.630;23.192;2023-04-06T02:20:11;91912.47;;;-1.24;80.67
64602;BME280;68371;42.630;23.192;2023-04-06T02:22:39;91953.31;;;-1.07;80.45
64602;BME280;68371;42.630;23.192;2023-04-06T02:25:06;91948.91;;;-1.07;80.22
64602;BME280;68371;42.630;23.192;2023-04-06T02:27:33;91949.22;;;-0.89;81.04
64602;BME280;68371;42.630;23.192;2023-04-06T02:30:00;91949.19;;;-0.84;80.25
64602;BME280;68371;42.630;23.192;2023-04-06T02:32:28;91902.34;;;-1.15;80.17
64602;BME280;68371;42.630;23.192;2023-04-06T02:34:55;91944.75;;;-1.03;81.38
64602;BME280;68371;42.630;23.192;2023-04-06T02:37:22;91952.75;;;-1.04;80.65
64602;BME280;68371;42.630;23.192;2023-04-06T02:39:49;91944.47;;;-1.01;81.05
64602;BME280;68371;42.630;23.192;2023-04-06T02:42:16;91946.97;;;-0.96;81.65
64602;BME280;68371;42.630;23.192;2023-04-06T02:44:43;91949.44;;;-0.86;80.22
64602;BME280;68371;42.630;23.192;2023-04-06T02:47:10;91953.09;;;-0.87;80.91
64602;BME280;68371;42.630;23.192;2023-04-06T02:49:38;91923.47;;;-1.13;81.09
64602;BME280;68371;42.630;23.192;2023-04-06T02:52:06;91946.56;;;-1.03;81.09
64602;BME280;68371;42.630;23.192;2023-04-06T02:54:33;91951.00;;;-1.09;81.47
64602;BME280;68371;42.630;23.192;2023-04-06T02:56:59;91944.59;;;-1.11;81.65
64602;BME280;68371;42.630;23.192;2023-04-06T02:59:26;91950.22;;;-1.09;82.25
64602;BME280;68371;42.630;23.192;2023-04-06T03:01:53;91950.66;;;-1.02;82.37
64602;BME280;68371;42.630;23.192;2023-04-06T03:04:20;91955.59;;;-1.06;81.28
64602;BME280;68371;42.630;23.192;2023-04-06T03:06:49;91954.56;;;-1.05;81.35
64602;BME280;68371;42.630;23.192;2023-04-06T03:09:16;91948.19;;;-0.88;82.28
64602;BME280;68371;42.630;23.192;2023-04-06T03:11:43;91955.66;;;-0.87;80.65
64602;BME280;68371;42.630;23.192;2023-04-06T03:14:09;91945.88;;;-0.90;80.99
64602;BME280;68371;42.630;23.192;2023-04-06T03:16:37;91949.78;;;-0.92;81.56
64602;BME280;68371;42.630;23.192;2023-04-06T03:19:04;91948.69;;;-0.86;81.09
64602;BME280;68371;42.630;23.192;2023-04-06T03:21:31;91949.13;;;-0.79;81.81
64602;BME280;68371;42.630;23.192;2023-04-06T03:23:59;91948.97;;;-0.88;82.09
64602;BME280;68371;42.630;23.192;2023-04-06T03:26:26;91945.97;;;-0.95;81.16
64602;BME280;68371;42.630;23.192;2023-04-06T03:28:52;91956.19;;;-0.90;82.41
64602;BME280;68371;42.630;23.192;2023-04-06T03:31:19;91946.59;;;-0.84;80.92
64602;BME280;68371;42.630;23.192;2023-04-06T03:33:46;91947.16;;;-0.87;80.91
64602;BME280;68371;42.630;23.192;2023-04-06T03:36:13;91946.09;;;-0.86;81.42
64602;BME280;68371;42.630;23.192;2023-04-06T03:38:40;91940.72;;;-0.90;82.05
64602;BME280;68371;42.630;23.192;2023-04-06T03:41:08;91945.22;;;-0.76;81.79
64602;BME280;68371;42.630;23.192;2023-04-06T03:43:35;91950.50;;;-0.87;80.74
64602;BME280;68371;42.630;23.192;2023-04-06T03:46:01;91953.81;;;-1.05;81.60
64602;BME280;68371;42.630;23.192;2023-04-06T03:48:28;91946.59;;;-1.08;81.80
64602;BME280;68371;42.630;23.192;2023-04-06T03:50:55;91956.88;;;-1.03;81.46
64602;BME280;68371;42.630;23.192;2023-04-06T03:53:22;91936.56;;;-1.10;82.55
64602;BME280;68371;42.630;23.192;2023-04-06T03:55:49;91946.22;;;-0.96;80.78
64602;BME280;68371;42.630;23.192;2023-04-06T03:58:17;91941.34;;;-0.98;82.34
64602;BME280;68371;42.630;23.192;2023-04-06T04:00:44;91937.25;;;-0.99;82.22
64602;BME280;68371;42.630;23.192;2023-04-06T04:03:11;91932.22;;;-1.14;81.01
64602;BME280;68371;42.630;23.192;2023-04-06T04:05:38;91932.72;;;-1.12;81.76
64602;BME280;68371;42.630;23.192;2023-04-06T04:08:05;91940.63;;;-1.04;81.21
64602;BME280;68371;42.630;23.192;2023-04-06T04:10:31;91939.81;;;-0.99;81.09
64602;BME280;68371;42.630;23.192;2023-04-06T04:12:58;91938.25;;;-1.00;81.10
64602;BME280;68371;42.630;23.192;2023-04-06T04:15:26;91942.66;;;-1.01;81.53
64602;BME280;68371;42.630;23.192;2023-04-06T04:17:53;91941.59;;;-0.99;81.71
64602;BME280;68371;42.630;23.192;2023-04-06T04:20:20;91940.56;;;-0.98;81.36
64602;BME280;68371;42.630;23.192;2023-04-06T04:22:47;91945.84;;;-1.09;80.94
64602;BME280;68371;42.630;23.192;2023-04-06T04:25:14;91945.72;;;-0.98;80.81
64602;BME280;68371;42.630;23.192;2023-04-06T04:27:41;91940.56;;;-0.98;82.24
64602;BME280;68371;42.630;23.192;2023-04-06T04:30:08;91941.50;;;-0.89;80.57
64602;BME280;68371;42.630;23.192;2023-04-06T04:32:36;91928.00;;;-0.81;81.34
64602;BME280;68371;42.630;23.192;2023-04-06T04:35:04;91939.69;;;-0.65;80.02
64602;BME280;68371;42.630;23.192;2023-04-06T04:37:30;91941.56;;;-0.70;79.96
64602;BME280;68371;42.630;23.192;2023-04-06T04:39:57;91936.56;;;-0.86;80.09
64602;BME280;68371;42.630;23.192;2023-04-06T04:42:24;91938.53;;;-0.77;81.33
64602;BME280;68371;42.630;23.192;2023-04-06T04:44:51;91938.03;;;-0.79;81.10
64602;BME280;68371;42.630;23.192;2023-04-06T04:47:18;91942.16;;;-0.78;79.96
64602;BME280;68371;42.630;23.192;2023-04-06T04:49:47;91937.72;;;-0.73;80.05
64602;BME280;68371;42.630;23.192;2023-04-06T04:52:14;91941.78;;;-0.67;79.80
64602;BME280;68371;42.630;23.192;2023-04-06T04:54:40;91937.78;;;-0.59;79.75
64602;BME280;68371;42.630;23.192;2023-04-06T04:57:08;91941.34;;;-0.55;80.11
64602;BME280;68371;42.630;23.192;2023-04-06T04:59:34;91932.78;;;-0.50;78.33
64602;BME280;68371;42.630;23.192;2023-04-06T05:02:01;91927.97;;;-0.57;78.08
64602;BME280;68371;42.630;23.192;2023-04-06T05:04:28;91911.09;;;-0.68;78.41
64602;BME280;68371;42.630;23.192;2023-04-06T05:07:04;91936.34;;;-0.46;78.70
64602;BME280;68371;42.630;23.192;2023-04-06T05:09:30;91936.69;;;-0.53;78.46
64602;BME280;68371;42.630;23.192;2023-04-06T05:11:58;91934.03;;;-0.48;78.50
64602;BME280;68371;42.630;23.192;2023-04-06T05:14:25;91934.41;;;-0.54;78.65
64602;BME280;68371;42.630;23.192;2023-04-06T05:16:52;91936.13;;;-0.50;78.37
64602;BME280;68371;42.630;23.192;2023-04-06T05:19:18;91923.38;;;-0.41;79.74
64602;BME280;68371;42.630;23.192;2023-04-06T05:21:45;91934.63;;;-0.32;78.66
64602;BME280;68371;42.630;23.192;2023-04-06T05:24:14;91933.06;;;-0.33;78.72
64602;BME280;68371;42.630;23.192;2023-04-06T05:26:41;91932.56;;;-0.35;77.59
64602;BME280;68371;42.630;23.192;2023-04-06T05:29:08;91933.91;;;-0.37;79.33
64602;BME280;68371;42.630;23.192;2023-04-06T05:31:34;91926.66;;;-0.35;79.74
64602;BME280;68371;42.630;23.192;2023-04-06T05:34:01;91917.09;;;-0.35;79.72
64602;BME280;68371;42.630;23.192;2023-04-06T05:36:28;91915.13;;;-0.43;80.15
64602;BME280;68371;42.630;23.192;2023-04-06T05:38:55;91923.16;;;-0.26;78.80
64602;BME280;68371;42.630;23.192;2023-04-06T05:41:24;91917.44;;;-0.23;78.12
64602;BME280;68371;42.630;23.192;2023-04-06T05:43:51;91921.78;;;-0.18;77.76
64602;BME280;68371;42.630;23.192;2023-04-06T05:46:18;91903.91;;;-0.14;77.52
64602;BME280;68371;42.630;23.192;2023-04-06T05:48:46;91908.53;;;-0.30;78.76
64602;BME280;68371;42.630;23.192;2023-04-06T05:51:13;91916.03;;;-0.15;78.78
64602;BME280;68371;42.630;23.192;2023-04-06T05:53:39;91901.69;;;-0.21;77.49
64602;BME280;68371;42.630;23.192;2023-04-06T05:56:06;91907.19;;;-0.28;77.43
64602;BME280;68371;42.630;23.192;2023-04-06T05:58:34;91919.03;;;-0.27;77.26
64602;BME280;68371;42.630;23.192;2023-04-06T06:01:02;91905.00;;;-0.21;78.28
64602;BME280;68371;42.630;23.192;2023-04-06T06:03:30;91907.91;;;-0.22;77.86
64602;BME280;68371;42.630;23.192;2023-04-06T06:06:00;91909.16;;;-0.19;77.22
64602;BME280;68371;42.630;23.192;2023-04-06T06:08:27;91908.72;;;-0.08;77.26
64602;BME280;68371;42.630;23.192;2023-04-06T06:10:54;91900.16;;;-0.22;78.69
64602;BME280;68371;42.630;23.192;2023-04-06T06:13:21;91854.31;;;-0.49;79.40
64602;BME280;68371;42.630;23.192;2023-04-06T06:15:49;91913.09;;;-0.08;78.33
64602;BME280;68371;42.630;23.192;2023-04-06T06:18:17;91911.75;;;0.13;77.99
64602;BME280;68371;42.630;23.192;2023-04-06T06:20:44;91910.72;;;-0.05;78.33
64602;BME280;68371;42.630;23.192;2023-04-06T06:23:11;91911.63;;;0.05;79.44
64602;BME280;68371;42.630;23.192;2023-04-06T06:25:38;91835.06;;;-0.38;78.74
64602;BME280;68371;42.630;23.192;2023-04-06T06:28:05;91884.47;;;0.07;78.76
64602;BME280;68371;42.630;23.192;2023-04-06T06:30:32;91910.09;;;0.36;77.93
64602;BME280;68371;42.630;23.192;2023-04-06T06:33:00;91907.09;;;0.62;76.41
64602;BME280;68371;42.630;23.192;2023-04-06T06:35:27;91879.22;;;0.45;77.43
64602;BME280;68371;42.630;23.192;2023-04-06T06:37:54;91903.66;;;0.53;76.33
64602;BME280;68371;42.630;23.192;2023-04-06T06:40:20;91902.69;;;0.63;76.69
64602;BME280;68371;42.630;23.192;2023-04-06T06:42:49;91912.75;;;0.64;77.03
64602;BME280;68371;42.630;23.192;2023-04-06T06:45:16;91916.50;;;0.72;76.21
64602;BME280;68371;42.630;23.192;2023-04-06T06:47:43;91912.28;;;0.76;76.77
64602;BME280;68371;42.630;23.192;2023-04-06T06:50:12;91912.38;;;0.85;74.28
64602;BME280;68371;42.630;23.192;2023-04-06T06:52:39;91919.56;;;0.88;76.17
64602;BME280;68371;42.630;23.192;2023-04-06T06:55:07;91921.22;;;0.97;74.14
64602;BME280;68371;42.630;23.192;2023-04-06T06:57:34;91913.44;;;0.70;73.49
64602;BME280;68371;42.630;23.192;2023-04-06T07:00:01;91924.84;;;0.96;74.63
64602;BME280;68371;42.630;23.192;2023-04-06T07:02:30;91924.19;;;1.05;74.98
64602;BME280;68371;42.630;23.192;2023-04-06T07:04:57;91921.22;;;0.97;74.19
64602;BME280;68371;42.630;23.192;2023-04-06T07:07:25;91917.28;;;0.86;74.09
64602;BME280;68371;42.630;23.192;2023-04-06T07:09:52;91916.91;;;1.07;72.63
64602;BME280;68371;42.630;23.192;2023-04-06T07:12:19;91924.47;;;1.03;75.01
64602;BME280;68371;42.630;23.192;2023-04-06T07:14:46;91896.88;;;0.98;75.27
64602;BME280;68371;42.630;23.192;2023-04-06T07:17:13;91920.91;;;1.13;73.38
64602;BME280;68371;42.630;23.192;2023-04-06T07:19:40;91916.69;;;1.17;72.85
64602;BME280;68371;42.630;23.192;2023-04-06T07:22:07;91924.75;;;1.15;74.56
64602;BME280;68371;42.630;23.192;2023-04-06T07:24:35;91917.78;;;1.16;74.62
64602;BME280;68371;42.630;23.192;2023-04-06T07:27:02;91921.19;;;1.25;75.69
64602;BME280;68371;42.630;23.192;2023-04-06T07:29:29;91908.38;;;1.20;73.46
64602;BME280;68371;42.630;23.192;2023-04-06T07:31:56;91922.00;;;1.12;73.86
64602;BME280;68371;42.630;23.192;2023-04-06T07:34:22;91928.56;;;0.90;74.65
64602;BME280;68371;42.630;23.192;2023-04-06T07:36:49;91922.75;;;0.98;76.54
64602;BME280;68371;42.630;23.192;2023-04-06T07:39:18;91916.22;;;1.01;76.24
64602;BME280;68371;42.630;23.192;2023-04-06T07:41:46;91915.47;;;1.00;77.00
64602;BME280;68371;42.630;23.192;2023-04-06T07:44:13;91921.69;;;0.99;75.57
64602;BME280;68371;42.630;23.192;2023-04-06T07:46:40;91919.97;;;1.09;76.08
64602;BME280;68371;42.630;23.192;2023-04-06T07:49:07;91928.88;;;1.03;74.79
64602;BME280;68371;42.630;23.192;2023-04-06T07:51:35;91929.03;;;0.78;75.31
64602;BME280;68371;42.630;23.192;2023-04-06T07:54:02;91926.38;;;0.97;74.05
64602;BME280;68371;42.630;23.192;2023-04-06T07:56:29;91934.31;;;1.01;74.55
64602;BME280;68371;42.630;23.192;2023-04-06T07:58:58;91923.31;;;1.09;73.25
64602;BME280;68371;42.630;23.192;2023-04-06T08:01:27;91918.59;;;1.11;73.45
64602;BME280;68371;42.630;23.192;2023-04-06T08:03:54;91921.31;;;1.20;73.39
64602;BME280;68371;42.630;23.192;2023-04-06T08:06:22;91911.16;;;1.10;72.35
64602;BME280;68371;42.630;23.192;2023-04-06T08:08:49;91920.91;;;1.40;74.81
64602;BME280;68371;42.630;23.192;2023-04-06T08:11:15;91921.38;;;1.43;73.89
64602;BME280;68371;42.630;23.192;2023-04-06T08:13:42;91929.91;;;1.57;73.47
64602;BME280;68371;42.630;23.192;2023-04-06T08:16:10;91925.75;;;1.56;71.79
64602;BME280;68371;42.630;23.192;2023-04-06T08:18:37;91923.16;;;1.70;73.04
64602;BME280;68371;42.630;23.192;2023-04-06T08:21:04;91925.38;;;1.76;72.67
64602;BME280;68371;42.630;23.192;2023-04-06T08:23:31;91929.44;;;1.91;72.48
64602;BME280;68371;42.630;23.192;2023-04-06T08:25:58;91928.59;;;1.82;72.20
64602;BME280;68371;42.630;23.192;2023-04-06T08:28:25;91936.28;;;1.73;70.52
64602;BME280;68371;42.630;23.192;2023-04-06T08:30:52;91932.50;;;1.57;71.82
64602;BME280;68371;42.630;23.192;2023-04-06T08:33:20;91933.72;;;1.59;71.30
64602;BME280;68371;42.630;23.192;2023-04-06T08:35:47;91929.88;;;1.71;72.90
64602;BME280;68371;42.630;23.192;2023-04-06T08:38:14;91925.97;;;1.59;71.89
64602;BME280;68371;42.630;23.192;2023-04-06T08:40:40;91934.59;;;1.55;72.07
64602;BME280;68371;42.630;23.192;2023-04-06T08:43:13;91931.16;;;1.46;71.32
64602;BME280;68371;42.630;23.192;2023-04-06T08:45:40;91924.72;;;1.43;71.59
64602;BME280;68371;42.630;23.192;2023-04-06T08:48:08;91930.66;;;1.44;71.18
64602;BME280;68371;42.630;23.192;2023-04-06T08:50:38;91932.41;;;1.07;71.31
64602;BME280;68371;42.630;23.192;2023-04-06T08:53:05;91935.97;;;1.25;71.88
64602;BME280;68371;42.630;23.192;2023-04-06T08:55:32;91929.84;;;1.34;70.72
64602;BME280;68371;42.630;23.192;2023-04-06T08:58:00;91930.59;;;1.35;68.88
64602;BME280;68371;42.630;23.192;2023-04-06T09:00:28;91932.56;;;1.52;69.66
64602;BME280;68371;42.630;23.192;2023-04-06T09:02:57;91912.66;;;1.38;68.94
64602;BME280;68371;42.630;23.192;2023-04-06T09:05:25;91927.22;;;1.48;69.82
64602;BME280;68371;42.630;23.192;2023-04-06T09:07:53;91923.28;;;1.51;69.78
64602;BME280;68371;42.630;23.192;2023-04-06T09:10:20;91921.78;;;1.72;70.93
64602;BME280;68371;42.630;23.192;2023-04-06T09:12:49;91908.13;;;1.94;70.96
64602;BME280;68371;42.630;23.192;2023-04-06T09:15:20;91920.06;;;1.82;69.88
64602;BME280;68371;42.630;23.192;2023-04-06T09:17:47;91925.66;;;1.75;70.67
64602;BME280;68371;42.630;23.192;2023-04-06T09:20:13;91924.25;;;1.91;71.18
64602;BME280;68371;42.630;23.192;2023-04-06T09:22:42;91913.06;;;2.05;71.63
64602;BME280;68371;42.630;23.192;2023-04-06T09:25:18;91918.69;;;2.20;69.02
64602;BME280;68371;42.630;23.192;2023-04-06T09:27:48;91919.47;;;2.21;67.28
64602;BME280;68371;42.630;23.192;2023-04-06T09:30:16;91917.97;;;2.29;69.05
64602;BME280;68371;42.630;23.192;2023-04-06T09:32:48;91925.88;;;2.01;66.30
64602;BME280;68371;42.630;23.192;2023-04-06T09:35:15;91902.78;;;1.91;65.44
64602;BME280;68371;42.630;23.192;2023-04-06T09:37:42;91918.69;;;2.20;65.24
64602;BME280;68371;42.630;23.192;2023-04-06T09:40:12;91917.88;;;2.34;65.48
64602;BME280;68371;42.630;23.192;2023-04-06T09:42:41;91909.44;;;2.28;66.60
64602;BME280;68371;42.630;23.192;2023-04-06T09:45:08;91915.44;;;2.60;66.30
64602;BME280;68371;42.630;23.192;2023-04-06T09:47:36;91880.59;;;2.52;64.58
64602;BME280;68371;42.630;23.192;2023-04-06T09:50:07;91897.25;;;2.91;65.49
64602;BME280;68371;42.630;23.192;2023-04-06T09:52:39;91898.44;;;3.16;64.42
64602;BME280;68371;42.630;23.192;2023-04-06T09:55:08;91884.53;;;3.12;64.85
64602;BME280;68371;42.630;23.192;2023-04-06T09:57:43;91904.84;;;3.19;62.53
64602;BME280;68371;42.630;23.192;2023-04-06T10:00:15;91895.38;;;3.14;62.75
64602;BME280;68371;42.630;23.192;2023-04-06T10:02:56;91907.78;;;3.35;63.25
64602;BME280;68371;42.630;23.192;2023-04-06T10:05:30;91909.56;;;3.17;61.24
64602;BME280;68371;42.630;23.192;2023-04-06T10:08:02;91904.81;;;3.10;64.31
64602;BME280;68371;42.630;23.192;2023-04-06T10:10:32;91906.69;;;3.18;61.29
64602;BME280;68371;42.630;23.192;2023-04-06T10:13:00;91878.72;;;3.24;62.21
64602;BME280;68371;42.630;23.192;2023-04-06T10:15:29;91894.94;;;3.30;60.29
64602;BME280;68371;42.630;23.192;2023-04-06T10:17:56;91891.19;;;3.53;59.40
64602;BME280;68371;42.630;23.192;2023-04-06T10:20:27;91894.66;;;3.49;61.67
64602;BME280;68371;42.630;23.192;2023-04-06T10:22:59;91892.91;;;3.75;59.65
64602;BME280;68371;42.630;23.192;2023-04-06T10:25:32;91886.94;;;3.84;59.82
64602;BME280;68371;42.630;23.192;2023-04-06T10:28:05;91864.00;;;3.94;60.67
64602;BME280;68371;42.630;23.192;2023-04-06T10:30:32;91881.88;;;4.13;58.63
64602;BME280;68371;42.630;23.192;2023-04-06T10:33:00;91874.22;;;3.91;59.03
64602;BME280;68371;42.630;23.192;2023-04-06T10:35:36;91831.91;;;3.73;59.97
64602;BME280;68371;42.630;23.192;2023-04-06T10:38:04;91862.63;;;3.97;59.44
64602;BME280;68371;42.630;23.192;2023-04-06T10:40:36;91878.69;;;3.90;58.70
64602;BME280;68371;42.630;23.192;2023-04-06T10:43:12;91861.41;;;3.68;58.62
64602;BME280;68371;42.630;23.192;2023-04-06T10:45:39;91882.34;;;3.89;60.49
64602;BME280;68371;42.630;23.192;2023-04-06T10:48:14;91878.34;;;3.74;58.87
64602;BME280;68371;42.630;23.192;2023-04-06T10:50:43;91871.78;;;3.94;58.54
64602;BME280;68371;42.630;23.192;2023-04-06T10:53:10;91879.88;;;3.93;56.31
64602;BME280;68371;42.630;23.192;2023-04-06T10:55:38;91878.34;;;4.09;57.76
64602;BME280;68371;42.630;23.192;2023-04-06T10:58:06;91878.53;;;3.95;58.08
64602;BME280;68371;42.630;23.192;2023-04-06T11:00:35;91879.28;;;3.61;57.06
64602;BME280;68371;42.630;23.192;2023-04-06T11:03:03;91878.81;;;3.85;58.29
64602;BME280;68371;42.630;23.192;2023-04-06T11:05:29;91873.31;;;3.87;57.58
64602;BME280;68371;42.630;23.192;2023-04-06T11:07:56;91882.19;;;3.68;54.63
64602;BME280;68371;42.630;23.192;2023-04-06T11:10:23;91865.53;;;3.87;57.83
64602;BME280;68371;42.630;23.192;2023-04-06T11:12:53;91876.66;;;4.13;57.35
64602;BME280;68371;42.630;23.192;2023-04-06T11:15:20;91865.69;;;4.08;55.24
64602;BME280;68371;42.630;23.192;2023-04-06T11:17:49;91864.63;;;4.00;55.76
64602;BME280;68371;42.630;23.192;2023-04-06T11:20:16;91867.50;;;4.07;56.10
64602;BME280;68371;42.630;23.192;2023-04-06T11:22:48;91858.03;;;4.20;57.04
64602;BME280;68371;42.630;23.192;2023-04-06T11:25:15;91852.84;;;4.03;54.37
64602;BME280;68371;42.630;23.192;2023-04-06T11:27:43;91856.78;;;4.17;56.15
64602;BME280;68371;42.630;23.192;2023-04-06T11:30:10;91850.53;;;4.18;55.34
64602;BME280;68371;42.630;23.192;2023-04-06T11:32:40;91855.88;;;4.05;55.53
64602;BME280;68371;42.630;23.192;2023-04-06T11:35:13;91850.06;;;4.16;58.32
64602;BME280;68371;42.630;23.192;2023-04-06T11:37:45;91842.22;;;4.34;57.18
64602;BME280;68371;42.630;23.192;2023-04-06T11:40:12;91840.75;;;4.24;54.47
64602;BME280;68371;42.630;23.192;2023-04-06T11:42:39;91840.25;;;4.31;55.94
64602;BME280;68371;42.630;23.192;2023-04-06T11:45:07;91837.97;;;4.29;57.53
64602;BME280;68371;42.630;23.192;2023-04-06T11:47:37;91837.81;;;4.17;56.76
64602;BME280;68371;42.630;23.192;2023-04-06T11:50:09;91832.91;;;4.33;57.18
64602;BME280;68371;42.630;23.192;2023-04-06T11:52:39;91831.56;;;4.18;56.37
64602;BME280;68371;42.630;23.192;2023-04-06T11:55:11;91831.41;;;4.23;57.55
64602;BME280;68371;42.630;23.192;2023-04-06T11:57:40;91828.66;;;4.28;58.09
64602;BME280;68371;42.630;23.192;2023-04-06T12:00:08;91827.25;;;4.31;57.33
64602;BME280;68371;42.630;23.192;2023-04-06T12:02:36;91829.56;;;4.15;55.45
64602;BME280;68371;42.630;23.192;2023-04-06T12:05:04;91836.31;;;4.16;58.17
64602;BME280;68371;42.630;23.192;2023-04-06T12:07:31;91824.56;;;3.84;56.34
64602;BME280;68371;42.630;23.192;2023-04-06T12:10:01;91827.59;;;4.03;57.67
64602;BME280;68371;42.630;23.192;2023-04-06T12:12:29;91822.09;;;4.05;57.57
64602;BME280;68371;42.630;23.192;2023-04-06T12:14:57;91818.25;;;4.11;59.57
64602;BME280;68371;42.630;23.192;2023-04-06T12:17:25;91812.88;;;4.25;58.66
64602;BME280;68371;42.630;23.192;2023-04-06T12:19:52;91824.09;;;3.73;57.03
64602;BME280;68371;42.630;23.192;2023-04-06T12:22:18;91811.88;;;3.56;59.37
64602;BME280;68371;42.630;23.192;2023-04-06T12:24:45;91819.38;;;3.66;58.96
64602;BME280;68371;42.630;23.192;2023-04-06T12:27:13;91832.22;;;3.71;60.82
64602;BME280;68371;42.630;23.192;2023-04-06T12:29:43;91810.81;;;3.66;58.02
64602;BME280;68371;42.630;23.192;2023-04-06T12:32:09;91824.25;;;3.76;59.62
64602;BME280;68371;42.630;23.192;2023-04-06T12:34:38;91821.81;;;3.71;58.55
64602;BME280;68371;42.630;23.192;2023-04-06T12:37:04;91831.44;;;3.71;59.87
64602;BME280;68371;42.630;23.192;2023-04-06T12:39:31;91826.53;;;3.87;57.96
64602;BME280;68371;42.630;23.192;2023-04-06T12:41:58;91827.16;;;3.84;57.75
64602;BME280;68371;42.630;23.192;2023-04-06T12:44:26;91817.06;;;3.99;59.42
64602;BME280;68371;42.630;23.192;2023-04-06T12:46:53;91815.66;;;4.19;58.46
64602;BME280;68371;42.630;23.192;2023-04-06T12:49:20;91808.56;;;4.37;58.25
64602;BME280;68371;42.630;23.192;2023-04-06T12:51:47;91808.69;;;4.58;58.00
64602;BME280;68371;42.630;23.192;2023-04-06T12:54:14;91806.47;;;4.69;56.42
64602;BME280;68371;42.630;23.192;2023-04-06T12:56:41;91807.53;;;4.68;56.78